Terminal Aerodrome Forecast
Issued by NWS Indianapolis, IN

Home | Current Version | Previous Version | Text Only | Print | Product List | Glossary On
Versions: 1 2 3 4 5 6 7 8 9 10 11 12 13 14 15 16 17 18 19 20 21 22 23 24 25 26
785
FTUS43 KIND 271420 AAA
TAFIND
TAF AMD
KIND 271420Z 2714/2818 14006KT P6SM FEW040 BKN220
     FM271800 14007KT P6SM VCTS BKN080CB
     FM272200 13008KT 4SM -SHRA VCTS BKN050CB
     FM280000 13006KT 6SM -SHRA VCTS OVC035CB
     FM280500 VRB03KT P6SM VCTS OVC015CB
     FM280700 VRB03KT P6SM OVC020
     FM281100 35005KT P6SM OVC003
     FM281700 02007KT P6SM BKN010=

USA.gov is the U.S. government's official web portal to all federal, state and local government web resources and services.